createdAt,value
2023-04-16T00:00:00.544Z,101191.00
2023-04-16T00:01:32.331Z,101194.20
2023-04-16T00:03:04.387Z,101193.00
2023-04-16T00:04:36.279Z,101190.80
2023-04-16T00:06:08.027Z,101192.20
2023-04-16T00:07:39.798Z,101195.00
2023-04-16T00:09:11.660Z,101194.20
2023-04-16T00:10:43.647Z,101191.80
2023-04-16T00:12:15.726Z,101189.80
2023-04-16T00:13:47.470Z,101185.80
2023-04-16T00:15:19.167Z,101192.00
2023-04-16T00:16:50.915Z,101192.40
2023-04-16T00:18:22.830Z,101188.40
2023-04-16T00:19:54.526Z,101188.20
2023-04-16T00:21:26.612Z,101190.80
2023-04-16T00:22:58.702Z,101191.00
2023-04-16T00:24:30.387Z,101192.60
2023-04-16T00:26:02.057Z,101190.20
2023-04-16T00:27:33.840Z,101191.20
2023-04-16T00:29:05.559Z,101199.60
2023-04-16T00:30:37.324Z,101196.80
2023-04-16T00:32:09.107Z,101196.40
2023-04-16T00:33:41.183Z,101196.40
2023-04-16T00:35:13.089Z,101198.40
2023-04-16T00:36:44.796Z,101201.80
2023-04-16T00:38:16.640Z,101201.00
2023-04-16T00:39:48.529Z,101205.80
2023-04-16T00:41:20.725Z,101206.40
2023-04-16T00:42:52.426Z,101207.00
2023-04-16T00:44:24.204Z,101202.80
2023-04-16T00:45:57.589Z,101197.80
2023-04-16T00:47:29.549Z,101204.60
2023-04-16T00:49:03.917Z,101204.00
2023-04-16T00:50:35.702Z,101204.40
2023-04-16T00:52:07.921Z,101205.20
2023-04-16T00:53:39.680Z,101204.20
2023-04-16T00:55:13.422Z,101204.80
2023-04-16T00:56:45.416Z,101201.60
2023-04-16T00:58:21.408Z,101203.40
2023-04-16T00:59:55.871Z,101206.80
2023-04-16T01:01:28.093Z,101207.80
2023-04-16T01:03:00.420Z,101206.80
2023-04-16T01:04:34.030Z,101208.00
2023-04-16T01:06:07.725Z,101207.20
2023-04-16T01:07:39.763Z,101203.60
2023-04-16T01:09:14.294Z,101207.80
2023-04-16T01:10:46.485Z,101203.80
2023-04-16T01:12:18.295Z,101210.60
2023-04-16T01:13:50.021Z,101200.40
2023-04-16T01:15:22.449Z,101204.80
2023-04-16T01:16:54.112Z,101209.80
2023-04-16T01:18:26.909Z,101206.80
2023-04-16T01:20:00.578Z,101214.60
2023-04-16T01:21:32.435Z,101206.60
2023-04-16T01:23:04.092Z,101213.20
2023-04-16T01:24:36.439Z,101206.80
2023-04-16T01:26:08.284Z,101208.60
2023-04-16T01:27:39.966Z,101218.00
2023-04-16T01:29:11.671Z,101216.40
2023-04-16T01:30:43.370Z,101211.80
2023-04-16T01:32:24.850Z,101217.40
2023-04-16T01:33:56.598Z,101215.40
2023-04-16T01:35:28.882Z,101218.40
2023-04-16T01:37:00.900Z,101221.00
2023-04-16T01:38:32.671Z,101224.80
2023-04-16T01:40:05.162Z,101220.60
2023-04-16T01:41:37.590Z,101223.00
2023-04-16T01:43:09.374Z,101229.80
2023-04-16T01:44:41.079Z,101225.60
2023-04-16T01:46:23.818Z,101224.60
2023-04-16T01:47:55.903Z,101220.80
2023-04-16T01:49:27.627Z,101226.60
2023-04-16T01:51:00.559Z,101227.80
2023-04-16T01:52:32.221Z,101229.00
2023-04-16T01:54:04.204Z,101227.80
2023-04-16T01:55:36.181Z,101226.00
2023-04-16T01:57:08.074Z,101227.40
2023-04-16T01:58:41.303Z,101225.40
2023-04-16T02:00:13.309Z,101222.60
2023-04-16T02:01:51.427Z,101226.00
2023-04-16T02:03:24.929Z,101224.80
2023-04-16T02:04:57.913Z,101218.40
2023-04-16T02:06:29.744Z,101218.00
2023-04-16T02:08:01.584Z,101216.80
2023-04-16T02:09:38.318Z,101214.80
2023-04-16T02:11:11.523Z,101214.60
2023-04-16T02:12:43.429Z,101221.00
2023-04-16T02:14:15.338Z,101220.20
2023-04-16T02:15:50.342Z,101219.40
2023-04-16T02:17:27.616Z,101217.20
2023-04-16T02:19:10.502Z,101219.20
2023-04-16T02:20:44.762Z,101214.60
2023-04-16T02:22:16.867Z,101210.80
2023-04-16T02:23:51.571Z,101217.40
2023-04-16T02:25:25.821Z,101217.00
2023-04-16T02:26:58.608Z,101219.00
2023-04-16T02:28:30.412Z,101211.80
2023-04-16T02:30:04.256Z,101211.00
2023-04-16T02:31:37.831Z,101216.40
2023-04-16T02:33:11.938Z,101217.40
2023-04-16T02:34:45.313Z,101214.80
2023-04-16T02:36:17.557Z,101225.00
2023-04-16T02:37:49.416Z,101220.80
2023-04-16T02:39:21.244Z,101221.40
2023-04-16T02:40:52.878Z,101227.20
2023-04-16T02:42:24.622Z,101223.80
2023-04-16T02:43:56.752Z,101225.00
2023-04-16T02:45:28.543Z,101219.20
2023-04-16T02:47:00.350Z,101221.60
2023-04-16T02:48:32.263Z,101224.60
2023-04-16T02:50:04.407Z,101216.60
2023-04-16T02:51:36.227Z,101222.20
2023-04-16T02:53:07.962Z,101223.20
2023-04-16T02:54:39.678Z,101221.40
2023-04-16T02:56:12.727Z,101222.00
2023-04-16T02:57:44.390Z,101221.40
2023-04-16T02:59:16.069Z,101219.80
2023-04-16T03:00:48.124Z,101217.20
2023-04-16T03:02:19.828Z,101221.40
2023-04-16T03:03:51.591Z,101225.00
2023-04-16T03:05:23.379Z,101216.80
2023-04-16T03:06:55.708Z,101219.40
2023-04-16T03:08:27.541Z,101215.40
2023-04-16T03:09:59.258Z,101221.40
2023-04-16T03:11:31.006Z,101224.60
2023-04-16T03:13:03.016Z,101223.80
2023-04-16T03:14:34.672Z,101224.20
2023-04-16T03:16:06.921Z,101225.60
2023-04-16T03:17:38.672Z,101228.40
2023-04-16T03:19:10.490Z,101228.60
2023-04-16T03:20:42.338Z,101228.20
2023-04-16T03:22:14.282Z,101229.00
2023-04-16T03:23:45.927Z,101230.00
2023-04-16T03:25:18.195Z,101228.40
2023-04-16T03:26:49.970Z,101234.20
2023-04-16T03:28:22.651Z,101233.20
2023-04-16T03:29:54.405Z,101234.40
2023-04-16T03:31:26.164Z,101233.60
2023-04-16T03:32:58.169Z,101232.20
2023-04-16T03:34:29.849Z,101230.80
2023-04-16T03:36:04.401Z,101230.60
2023-04-16T03:37:36.176Z,101233.00
2023-04-16T03:39:08.040Z,101231.40
2023-04-16T03:40:40.870Z,101234.20
2023-04-16T03:42:12.579Z,101239.40
2023-04-16T03:43:44.590Z,101233.20
2023-04-16T03:45:16.591Z,101239.60
2023-04-16T03:46:48.598Z,101235.00
2023-04-16T03:48:20.345Z,101233.20
2023-04-16T03:49:52.312Z,101235.60
2023-04-16T03:51:24.851Z,101233.60
2023-04-16T03:52:56.852Z,101233.40
2023-04-16T03:54:28.753Z,101234.40
2023-04-16T03:56:09.899Z,101237.80
2023-04-16T03:57:43.999Z,101242.40
2023-04-16T03:59:18.173Z,101240.60
2023-04-16T04:00:49.888Z,101243.00
2023-04-16T04:02:21.862Z,101242.60
2023-04-16T04:03:54.013Z,101239.40
2023-04-16T04:05:26.009Z,101238.80
2023-04-16T04:06:57.648Z,101245.20
2023-04-16T04:08:30.701Z,101246.80
2023-04-16T04:10:02.481Z,101247.60
2023-04-16T04:11:34.681Z,101246.40
2023-04-16T04:13:07.301Z,101243.00
2023-04-16T04:14:40.044Z,101247.40
2023-04-16T04:16:11.980Z,101245.60
2023-04-16T04:17:43.814Z,101248.20
2023-04-16T04:19:15.630Z,101250.60
2023-04-16T04:20:47.585Z,101248.20
2023-04-16T04:22:20.557Z,101250.40
2023-04-16T04:23:52.859Z,101250.80
2023-04-16T04:25:25.819Z,101255.00
2023-04-16T04:26:57.564Z,101256.60
2023-04-16T04:28:30.698Z,101254.20
2023-04-16T04:30:06.583Z,101253.40
2023-04-16T04:31:38.393Z,101259.00
2023-04-16T04:33:10.204Z,101252.80
2023-04-16T04:34:42.794Z,101260.00
2023-04-16T04:36:14.593Z,101258.60
2023-04-16T04:37:47.096Z,101262.00
2023-04-16T04:39:21.902Z,101258.60
2023-04-16T04:40:54.020Z,101262.20
2023-04-16T04:42:26.228Z,101262.00
2023-04-16T04:43:59.094Z,101263.80
2023-04-16T04:45:32.124Z,101261.20
2023-04-16T04:47:04.720Z,101263.40
2023-04-16T04:48:36.367Z,101264.60
2023-04-16T04:50:08.659Z,101265.60
2023-04-16T04:51:40.541Z,101265.00
2023-04-16T04:53:14.626Z,101268.20
2023-04-16T04:54:46.803Z,101271.80
2023-04-16T04:56:18.439Z,101275.60
2023-04-16T04:57:50.447Z,101274.00
2023-04-16T04:59:23.790Z,101274.40
2023-04-16T05:00:55.513Z,101271.40
2023-04-16T05:02:27.402Z,101280.40
2023-04-16T05:03:59.180Z,101284.20
2023-04-16T05:05:31.128Z,101282.00
2023-04-16T05:07:03.088Z,101284.00
2023-04-16T05:08:34.748Z,101288.60
2023-04-16T05:10:07.496Z,101292.20
2023-04-16T05:11:39.356Z,101291.40
2023-04-16T05:13:11.091Z,101289.60
2023-04-16T05:14:43.030Z,101293.40
2023-04-16T05:16:14.730Z,101293.20
2023-04-16T05:17:46.435Z,101291.00
2023-04-16T05:19:18.119Z,101293.40
2023-04-16T05:20:49.806Z,101294.20
2023-04-16T05:22:21.573Z,101295.40
2023-04-16T05:23:53.913Z,101296.40
2023-04-16T05:25:25.682Z,101294.60
2023-04-16T05:26:57.741Z,101297.40
2023-04-16T05:28:31.144Z,101299.80
2023-04-16T05:30:03.575Z,101298.60
2023-04-16T05:31:35.342Z,101299.40
2023-04-16T05:33:07.071Z,101304.40
2023-04-16T05:34:38.718Z,101304.40
2023-04-16T05:36:10.417Z,101302.00
2023-04-16T05:37:42.098Z,101305.80
2023-04-16T05:39:13.827Z,101306.40
2023-04-16T05:40:45.800Z,101313.60
2023-04-16T05:42:17.629Z,101314.40
2023-04-16T05:43:49.335Z,101320.40
2023-04-16T05:45:21.459Z,101321.60
2023-04-16T05:46:53.233Z,101319.80
2023-04-16T05:48:24.971Z,101322.00
2023-04-16T05:49:56.615Z,101324.00
2023-04-16T05:51:29.331Z,101325.80
2023-04-16T05:53:05.768Z,101330.20
2023-04-16T05:54:37.440Z,101330.60
2023-04-16T05:56:09.552Z,101329.20
2023-04-16T05:57:41.301Z,101333.40
2023-04-16T05:59:12.979Z,101332.60
2023-04-16T06:00:45.317Z,101332.40
2023-04-16T06:02:17.076Z,101335.40
2023-04-16T06:03:49.305Z,101340.40
2023-04-16T06:05:21.305Z,101342.80
2023-04-16T06:06:53.044Z,101340.40
2023-04-16T06:08:24.784Z,101340.20
2023-04-16T06:09:56.529Z,101341.20
2023-04-16T06:11:30.670Z,101343.80
2023-04-16T06:13:02.448Z,101347.40
2023-04-16T06:14:34.059Z,101346.20
2023-04-16T06:16:06.463Z,101341.60
2023-04-16T06:17:38.240Z,101345.60
2023-04-16T06:19:10.180Z,101344.80
2023-04-16T06:20:41.978Z,101346.60
2023-04-16T06:22:13.990Z,101340.40
2023-04-16T06:23:45.777Z,101345.20
2023-04-16T06:25:18.321Z,101347.80
2023-04-16T06:26:50.034Z,101347.60
2023-04-16T06:28:22.156Z,101351.80
2023-04-16T06:29:53.891Z,101351.20
2023-04-16T06:31:25.823Z,101351.40
2023-04-16T06:32:57.662Z,101363.20
2023-04-16T06:34:29.736Z,101362.40
2023-04-16T06:36:01.437Z,101359.20
2023-04-16T06:37:33.064Z,101362.80
2023-04-16T06:39:04.981Z,101362.40
2023-04-16T06:40:37.531Z,101368.00
2023-04-16T06:42:09.217Z,101367.60
2023-04-16T06:43:41.168Z,101367.60
2023-04-16T06:45:13.725Z,101366.20
2023-04-16T06:46:45.584Z,101367.00
2023-04-16T06:48:17.237Z,101370.40
2023-04-16T06:49:48.906Z,101372.20
2023-04-16T06:51:20.715Z,101372.40
2023-04-16T06:52:52.989Z,101372.60
2023-04-16T06:54:24.645Z,101374.60
2023-04-16T06:55:56.444Z,101373.00
2023-04-16T06:57:28.146Z,101373.00
2023-04-16T06:59:00.911Z,101376.00
2023-04-16T07:00:32.700Z,101372.60
2023-04-16T07:02:04.495Z,101375.80
2023-04-16T07:03:36.712Z,101370.80
2023-04-16T07:05:09.076Z,101371.40
2023-04-16T07:06:40.782Z,101372.60
2023-04-16T07:08:12.454Z,101372.20
2023-04-16T07:09:44.160Z,101372.40
2023-04-16T07:11:16.328Z,101375.60
2023-04-16T07:12:48.087Z,101374.40
2023-04-16T07:14:19.910Z,101378.60
2023-04-16T07:15:51.594Z,101379.40
2023-04-16T07:17:23.366Z,101381.80
2023-04-16T07:18:55.161Z,101382.20
2023-04-16T07:20:26.830Z,101384.00
2023-04-16T07:21:59.942Z,101384.60
2023-04-16T07:23:31.687Z,101384.40
2023-04-16T07:25:03.902Z,101389.20
2023-04-16T07:26:35.601Z,101389.60
2023-04-16T07:28:07.388Z,101394.40
2023-04-16T07:29:39.144Z,101392.60
2023-04-16T07:31:11.146Z,101391.40
2023-04-16T07:32:42.976Z,101387.20
2023-04-16T07:34:14.712Z,101385.40
2023-04-16T07:35:46.469Z,101392.40
2023-04-16T07:37:18.120Z,101392.80
2023-04-16T07:38:49.731Z,101397.40
2023-04-16T07:40:21.477Z,101398.40
2023-04-16T07:41:53.156Z,101398.20
2023-04-16T07:43:24.893Z,101404.40
2023-04-16T07:44:56.725Z,101400.60
2023-04-16T07:46:36.106Z,101398.00
2023-04-16T07:48:15.461Z,101407.80
2023-04-16T07:49:47.155Z,101402.80
2023-04-16T07:51:18.855Z,101404.40
2023-04-16T07:52:50.480Z,101403.40
2023-04-16T07:54:22.210Z,101404.80
2023-04-16T07:55:53.877Z,101404.60
2023-04-16T07:57:25.738Z,101406.80
2023-04-16T07:58:58.351Z,101406.40
2023-04-16T08:00:35.361Z,101406.20
2023-04-16T08:02:08.986Z,101409.40
2023-04-16T08:03:41.042Z,101409.40
2023-04-16T08:05:13.371Z,101410.20
2023-04-16T08:06:45.386Z,101417.80
2023-04-16T08:08:17.154Z,101415.60
2023-04-16T08:09:51.478Z,101424.80
2023-04-16T08:11:24.021Z,101416.40
2023-04-16T08:12:55.715Z,101419.00
2023-04-16T08:14:27.452Z,101427.00
2023-04-16T08:15:59.140Z,101423.00
2023-04-16T08:17:30.975Z,101427.40
2023-04-16T08:19:02.688Z,101426.80
2023-04-16T08:20:34.394Z,101425.60
2023-04-16T08:22:06.675Z,101428.60
2023-04-16T08:23:38.383Z,101429.20
2023-04-16T08:25:10.518Z,101433.20
2023-04-16T08:26:42.147Z,101435.80
2023-04-16T08:28:13.763Z,101436.40
2023-04-16T08:29:45.491Z,101435.80
2023-04-16T08:31:17.356Z,101440.40
2023-04-16T08:32:50.310Z,101440.80
2023-04-16T08:34:22.587Z,101443.60
2023-04-16T08:35:54.215Z,101450.00
2023-04-16T08:37:26.582Z,101448.80
2023-04-16T08:38:58.283Z,101450.00
2023-04-16T08:40:31.604Z,101453.00
2023-04-16T08:42:07.036Z,101455.20
2023-04-16T08:43:44.360Z,101456.20
2023-04-16T08:45:18.426Z,101457.60
2023-04-16T08:46:57.201Z,101455.80
2023-04-16T08:48:35.147Z,101458.60
2023-04-16T08:50:11.557Z,101464.40
2023-04-16T08:51:51.175Z,101464.40
2023-04-16T08:53:36.788Z,101464.00
2023-04-16T08:55:16.246Z,101461.80
2023-04-16T08:56:49.322Z,101465.60
2023-04-16T08:58:29.242Z,101470.60
2023-04-16T09:00:02.092Z,101474.20
2023-04-16T09:01:35.286Z,101472.80
2023-04-16T09:03:08.896Z,101470.60
2023-04-16T09:04:42.733Z,101474.00
2023-04-16T09:06:16.843Z,101469.40
2023-04-16T09:07:48.913Z,101473.40
2023-04-16T09:09:21.996Z,101477.00
2023-04-16T09:10:55.588Z,101479.80
2023-04-16T09:12:27.808Z,101479.20
2023-04-16T09:14:00.969Z,101484.60
2023-04-16T09:15:35.440Z,101479.20
2023-04-16T09:17:07.527Z,101486.60
2023-04-16T09:18:39.401Z,101484.20
2023-04-16T09:20:12.425Z,101484.00
2023-04-16T09:21:47.547Z,101483.40
2023-04-16T09:23:19.213Z,101483.40
2023-04-16T09:24:50.874Z,101484.20
2023-04-16T09:26:22.750Z,101485.20
2023-04-16T09:27:54.409Z,101486.80
2023-04-16T09:29:41.206Z,101492.40
2023-04-16T09:31:15.069Z,101490.40
2023-04-16T09:32:46.722Z,101487.20
2023-04-16T09:34:18.391Z,101496.80
2023-04-16T09:35:53.014Z,101492.80
2023-04-16T09:37:30.328Z,101499.00
2023-04-16T09:39:03.928Z,101501.80
2023-04-16T09:40:35.803Z,101503.60
2023-04-16T09:42:07.856Z,101498.80
2023-04-16T09:43:39.475Z,101499.00
2023-04-16T09:45:11.605Z,101500.80
2023-04-16T09:46:43.270Z,101499.40
2023-04-16T09:48:14.918Z,101502.60
2023-04-16T09:49:47.207Z,101497.60
2023-04-16T09:51:19.103Z,101499.80
2023-04-16T09:52:51.566Z,101503.20
2023-04-16T09:54:23.316Z,101505.00
2023-04-16T09:56:00.365Z,101505.40
2023-04-16T09:57:32.171Z,101501.20
2023-04-16T09:59:03.875Z,101505.60
2023-04-16T10:00:35.777Z,101506.00
2023-04-16T10:02:16.543Z,101509.80
2023-04-16T10:03:50.808Z,101504.60
2023-04-16T10:05:22.773Z,101508.00
2023-04-16T10:07:06.775Z,101503.00
2023-04-16T10:08:52.900Z,101507.80
2023-04-16T10:10:24.776Z,101508.80
2023-04-16T10:11:56.483Z,101510.60
2023-04-16T10:13:28.222Z,101511.60
2023-04-16T10:15:00.127Z,101512.40
2023-04-16T10:16:33.064Z,101513.60
2023-04-16T10:18:05.892Z,101518.20
2023-04-16T10:19:38.075Z,101517.00
2023-04-16T10:21:12.630Z,101513.80
2023-04-16T10:22:44.938Z,101513.80
2023-04-16T10:24:18.234Z,101513.80
2023-04-16T10:25:50.591Z,101511.60
2023-04-16T10:27:22.830Z,101512.40
2023-04-16T10:28:55.483Z,101513.60
2023-04-16T10:30:27.987Z,101514.80
2023-04-16T10:32:01.143Z,101517.00
2023-04-16T10:33:36.509Z,101519.40
2023-04-16T10:35:08.653Z,101519.40
2023-04-16T10:36:40.642Z,101523.40
2023-04-16T10:38:24.867Z,101530.20
2023-04-16T10:39:56.598Z,101525.00
2023-04-16T10:41:29.033Z,101525.00
2023-04-16T10:43:01.574Z,101524.20
2023-04-16T10:44:33.745Z,101525.80
2023-04-16T10:46:31.787Z,101521.00
2023-04-16T10:48:09.938Z,101513.80
2023-04-16T10:49:45.156Z,101511.20
2023-04-16T10:51:33.568Z,101502.80
2023-04-16T10:53:18.766Z,101502.20
2023-04-16T10:54:53.040Z,101501.20
2023-04-16T10:56:27.565Z,101503.00
2023-04-16T10:57:59.249Z,101498.00
2023-04-16T10:59:34.917Z,101497.60
2023-04-16T11:01:13.274Z,101502.60
2023-04-16T11:02:45.190Z,101499.20
2023-04-16T11:04:20.068Z,101501.00
2023-04-16T11:05:52.126Z,101495.80
2023-04-16T11:07:35.127Z,101496.20
2023-04-16T11:09:07.269Z,101494.20
2023-04-16T11:10:39.548Z,101494.40
2023-04-16T11:12:18.517Z,101495.40
2023-04-16T11:13:55.796Z,101496.80
2023-04-16T11:15:30.901Z,101495.40
2023-04-16T11:17:04.029Z,101493.80
2023-04-16T11:18:36.511Z,101495.40
2023-04-16T11:20:21.052Z,101495.40
2023-04-16T11:21:53.071Z,101498.20
2023-04-16T11:23:24.869Z,101501.00
2023-04-16T11:24:57.268Z,101501.80
2023-04-16T11:26:30.773Z,101503.60
2023-04-16T11:28:02.990Z,101503.00
2023-04-16T11:29:35.222Z,101499.20
2023-04-16T11:31:12.509Z,101505.40
2023-04-16T11:32:45.268Z,101504.20
2023-04-16T11:34:18.713Z,101506.40
2023-04-16T11:36:00.216Z,101503.60
2023-04-16T11:37:37.060Z,101504.80
2023-04-16T11:39:08.917Z,101507.60
2023-04-16T11:40:42.456Z,101511.20
2023-04-16T11:42:21.263Z,101514.20
2023-04-16T11:43:53.000Z,101519.40
2023-04-16T11:45:24.738Z,101517.00
2023-04-16T11:46:56.456Z,101525.60
2023-04-16T11:48:54.012Z,101521.20
2023-04-16T11:50:28.761Z,101518.20
2023-04-16T11:52:00.401Z,101519.40
2023-04-16T11:53:32.375Z,101518.80
2023-04-16T11:55:04.894Z,101513.40
2023-04-16T11:56:39.831Z,101513.60
2023-04-16T11:58:12.978Z,101515.80
2023-04-16T12:00:01.790Z,101517.60
2023-04-16T12:01:50.915Z,101518.80
2023-04-16T12:03:40.538Z,101522.00
2023-04-16T12:05:32.724Z,101521.80
2023-04-16T12:07:13.464Z,101523.20
2023-04-16T12:08:45.282Z,101522.40
2023-04-16T12:10:16.930Z,101520.20
2023-04-16T12:11:48.632Z,101526.40
2023-04-16T12:13:20.621Z,101528.20
2023-04-16T12:14:54.695Z,101525.60
2023-04-16T12:16:27.252Z,101528.80
2023-04-16T12:18:09.439Z,101527.00
2023-04-16T12:19:57.793Z,101525.80
2023-04-16T12:21:48.003Z,101527.20
2023-04-16T12:23:30.784Z,101527.60
2023-04-16T12:25:06.057Z,101526.80
2023-04-16T12:26:41.282Z,101525.60
2023-04-16T12:28:13.788Z,101526.20
2023-04-16T12:29:45.659Z,101525.00
2023-04-16T12:31:17.409Z,101522.80
2023-04-16T12:32:52.539Z,101525.00
2023-04-16T12:34:28.949Z,101527.00
2023-04-16T12:36:20.001Z,101528.60
2023-04-16T12:37:51.654Z,101527.60
2023-04-16T12:39:23.296Z,101527.60
2023-04-16T12:40:56.983Z,101526.00
2023-04-16T12:42:35.561Z,101524.80
2023-04-16T12:44:11.983Z,101523.20
2023-04-16T12:45:43.679Z,101519.00
2023-04-16T12:47:15.664Z,101519.00
2023-04-16T12:48:49.693Z,101520.40
2023-04-16T12:50:22.313Z,101523.80
2023-04-16T12:51:53.958Z,101527.00
2023-04-16T12:53:26.068Z,101528.00
2023-04-16T12:54:57.732Z,101532.20
2023-04-16T12:56:31.198Z,101528.40
2023-04-16T12:58:02.813Z,101526.20
2023-04-16T12:59:34.455Z,101528.60
2023-04-16T13:01:06.195Z,101518.20
2023-04-16T13:02:38.065Z,101521.20
2023-04-16T13:04:10.293Z,101521.80
2023-04-16T13:05:42.504Z,101520.20
2023-04-16T13:07:14.207Z,101518.00
2023-04-16T13:08:46.071Z,101513.80
2023-04-16T13:10:17.991Z,101518.80
2023-04-16T13:11:49.712Z,101524.60
2023-04-16T13:13:21.368Z,101519.00
2023-04-16T13:14:54.256Z,101519.60
2023-04-16T13:16:26.123Z,101525.40
2023-04-16T13:17:57.872Z,101520.20
2023-04-16T13:19:31.020Z,101520.00
2023-04-16T13:21:03.271Z,101519.00
2023-04-16T13:22:35.387Z,101518.80
2023-04-16T13:24:07.271Z,101519.20
2023-04-16T13:25:38.962Z,101517.40
2023-04-16T13:27:11.288Z,101516.80
2023-04-16T13:28:42.960Z,101515.40
2023-04-16T13:30:14.930Z,101514.60
2023-04-16T13:31:47.195Z,101518.00
2023-04-16T13:33:19.542Z,101513.40
2023-04-16T13:34:51.232Z,101514.80
2023-04-16T13:36:22.868Z,101515.20
2023-04-16T13:37:54.565Z,101515.20
2023-04-16T13:39:26.329Z,101512.60
2023-04-16T13:40:58.018Z,101511.80
2023-04-16T13:42:29.693Z,101516.40
2023-04-16T13:44:01.323Z,101514.20
2023-04-16T13:45:33.722Z,101514.60
2023-04-16T13:47:05.552Z,101513.40
2023-04-16T13:48:37.251Z,101509.20
2023-04-16T13:50:10.319Z,101521.00
2023-04-16T13:51:45.003Z,101514.40
2023-04-16T13:53:16.694Z,101510.40
2023-04-16T13:54:48.326Z,101513.40
2023-04-16T13:56:25.166Z,101514.40
2023-04-16T13:57:57.014Z,101513.80
2023-04-16T13:59:28.939Z,101513.20
2023-04-16T14:01:00.644Z,101512.00
2023-04-16T14:02:32.666Z,101511.20
2023-04-16T14:04:06.404Z,101510.20
2023-04-16T14:05:38.645Z,101509.20
2023-04-16T14:07:10.511Z,101516.00
2023-04-16T14:08:42.250Z,101509.80
2023-04-16T14:10:13.915Z,101509.40
2023-04-16T14:11:45.876Z,101510.20
2023-04-16T14:13:17.530Z,101512.00
2023-04-16T14:14:49.224Z,101515.00
2023-04-16T14:16:21.000Z,101511.60
2023-04-16T14:17:52.949Z,101509.00
2023-04-16T14:19:25.269Z,101509.00
2023-04-16T14:20:57.614Z,101512.60
2023-04-16T14:22:29.261Z,101512.00
2023-04-16T14:24:00.948Z,101515.80
2023-04-16T14:25:33.684Z,101513.00
2023-04-16T14:27:05.350Z,101511.00
2023-04-16T14:28:37.159Z,101509.00
2023-04-16T14:30:09.357Z,101507.00
2023-04-16T14:31:41.526Z,101511.20
2023-04-16T14:33:13.226Z,101515.20
2023-04-16T14:34:45.135Z,101512.00
2023-04-16T14:36:17.004Z,101510.00
2023-04-16T14:37:49.519Z,101508.40
2023-04-16T14:39:21.494Z,101512.80
2023-04-16T14:40:53.188Z,101515.00
2023-04-16T14:42:24.914Z,101515.00
2023-04-16T14:43:56.622Z,101518.20
2023-04-16T14:45:29.985Z,101516.20
2023-04-16T14:47:01.727Z,101516.60
2023-04-16T14:48:33.433Z,101518.60
2023-04-16T14:50:06.455Z,101518.20
2023-04-16T14:51:38.187Z,101524.00
2023-04-16T14:53:11.937Z,101516.20
2023-04-16T14:54:43.685Z,101517.60
2023-04-16T14:56:15.453Z,101517.40
2023-04-16T14:57:47.175Z,101518.80
2023-04-16T14:59:18.869Z,101519.60
2023-04-16T15:00:50.805Z,101518.20
2023-04-16T15:02:22.828Z,101520.00
2023-04-16T15:03:56.561Z,101513.00
2023-04-16T15:05:28.334Z,101509.60
2023-04-16T15:07:00.224Z,101516.00
2023-04-16T15:08:31.927Z,101513.60
2023-04-16T15:10:04.308Z,101516.20
2023-04-16T15:11:36.087Z,101517.40
2023-04-16T15:13:07.733Z,101517.20
2023-04-16T15:14:39.361Z,101515.00
2023-04-16T15:16:11.562Z,101516.00
2023-04-16T15:17:43.789Z,101514.40
2023-04-16T15:19:15.802Z,101512.80
2023-04-16T15:20:47.463Z,101509.80
2023-04-16T15:22:19.372Z,101512.00
2023-04-16T15:23:51.459Z,101512.40
2023-04-16T15:25:24.176Z,101514.80
2023-04-16T15:26:56.172Z,101513.40
2023-04-16T15:28:27.942Z,101512.20
2023-04-16T15:29:59.904Z,101509.60
2023-04-16T15:31:31.783Z,101510.00
2023-04-16T15:33:03.662Z,101509.80
2023-04-16T15:34:35.300Z,101514.40
2023-04-16T15:36:07.198Z,101518.20
2023-04-16T15:37:39.337Z,101512.40
2023-04-16T15:39:11.298Z,101513.40
2023-04-16T15:40:43.312Z,101506.00
2023-04-16T15:42:16.582Z,101507.20
2023-04-16T15:43:48.260Z,101508.20
2023-04-16T15:45:20.077Z,101510.20
2023-04-16T15:46:51.686Z,101514.00
2023-04-16T15:48:24.745Z,101510.00
2023-04-16T15:49:56.422Z,101505.80
2023-04-16T15:51:29.318Z,101501.60
2023-04-16T15:53:01.097Z,101501.40
2023-04-16T15:54:32.824Z,101499.20
2023-04-16T15:56:04.727Z,101496.80
2023-04-16T15:57:36.748Z,101511.60
2023-04-16T15:59:08.602Z,101504.60
2023-04-16T16:00:40.515Z,101506.60
2023-04-16T16:02:12.340Z,101500.80
2023-04-16T16:03:44.528Z,101508.60
2023-04-16T16:05:17.029Z,101517.80
2023-04-16T16:06:52.776Z,101516.20
2023-04-16T16:08:24.567Z,101502.40
2023-04-16T16:09:56.255Z,101503.00
2023-04-16T16:11:28.019Z,101511.00
2023-04-16T16:13:05.188Z,101514.00
2023-04-16T16:14:36.985Z,101514.60
2023-04-16T16:16:08.780Z,101512.20
2023-04-16T16:17:40.886Z,101505.20
2023-04-16T16:19:13.189Z,101498.20
2023-04-16T16:20:44.881Z,101513.20
2023-04-16T16:22:20.363Z,101518.20
2023-04-16T16:23:52.072Z,101519.80
2023-04-16T16:25:24.029Z,101522.20
2023-04-16T16:26:56.771Z,101517.40
2023-04-16T16:28:28.516Z,101521.40
2023-04-16T16:30:01.063Z,101522.80
2023-04-16T16:31:33.067Z,101524.60
2023-04-16T16:33:05.020Z,101526.80
2023-04-16T16:34:37.330Z,101527.80
2023-04-16T16:36:12.724Z,101526.40
2023-04-16T16:37:44.491Z,101523.80
2023-04-16T16:39:16.408Z,101527.00
2023-04-16T16:40:48.133Z,101529.20
2023-04-16T16:42:19.762Z,101531.60
2023-04-16T16:43:55.707Z,101531.80
2023-04-16T16:45:28.518Z,101529.40
2023-04-16T16:47:00.458Z,101531.20
2023-04-16T16:48:32.339Z,101530.40
2023-04-16T16:50:05.337Z,101534.00
2023-04-16T16:51:38.046Z,101534.20
2023-04-16T16:53:09.811Z,101533.40
2023-04-16T16:54:42.701Z,101533.60
2023-04-16T16:56:14.451Z,101532.40
2023-04-16T16:57:46.214Z,101535.00
2023-04-16T16:59:18.051Z,101533.60
2023-04-16T17:00:49.911Z,101531.60
2023-04-16T17:02:22.875Z,101537.20
2023-04-16T17:03:54.782Z,101541.80
2023-04-16T17:05:26.658Z,101545.40
2023-04-16T17:06:58.484Z,101544.00
2023-04-16T17:08:30.359Z,101548.00
2023-04-16T17:10:05.267Z,101544.60
2023-04-16T17:11:38.422Z,101543.60
2023-04-16T17:13:10.471Z,101543.80
2023-04-16T17:14:42.226Z,101548.40
2023-04-16T17:16:15.408Z,101543.40
2023-04-16T17:17:47.277Z,101542.80
2023-04-16T17:19:19.210Z,101540.80
2023-04-16T17:20:51.262Z,101546.20
2023-04-16T17:22:22.908Z,101548.00
2023-04-16T17:23:54.603Z,101543.80
2023-04-16T17:25:26.503Z,101545.00
2023-04-16T17:26:58.506Z,101547.00
2023-04-16T17:28:30.374Z,101548.20
2023-04-16T17:30:05.301Z,101544.80
2023-04-16T17:31:37.082Z,101549.60
2023-04-16T17:33:09.008Z,101549.00
2023-04-16T17:34:40.913Z,101549.60
2023-04-16T17:36:12.810Z,101547.40
2023-04-16T17:37:44.618Z,101554.60
2023-04-16T17:39:17.332Z,101551.60
2023-04-16T17:40:49.134Z,101549.40